Time;durP1;ratioP1;P1;durP2;ratioP2;P2;SDS_P1;SDS_P2;PMS_P1;PMS_P2;Temp;Humidity;BMP_temperature;BMP_pressure;BME280_temperature;BME280_humidity;BME280_pressure;Samples;Min_cycle;Max_cycle;Signal;HPM_P1;HPM_P2
2023/05/03 00:01:45;;;;;;;7.30;4.00;;;9.70;1.00;;;;;;5078269;28;20164;-86
2023/05/03 00:04:14;;;;;;;7.40;3.37;;;9.70;1.00;;;;;;5072311;28;20175;-86
2023/05/03 00:06:42;;;;;;;7.33;3.50;;;9.70;1.00;;;;;;5071942;28;20604;-86
2023/05/03 00:09:09;;;;;;;8.97;3.63;;;9.60;1.00;;;;;;5062934;28;20520;-86
2023/05/03 00:11:35;;;;;;;5.70;3.50;;;9.60;1.00;;;;;;5054346;28;20660;-86
2023/05/03 00:14:02;;;;;;;9.37;4.63;;;9.60;1.00;;;;;;5052865;28;20212;-86
2023/05/03 00:16:28;;;;;;;6.10;3.30;;;9.50;1.00;;;;;;5052583;28;20579;-88
2023/05/03 00:18:53;;;;;;;5.83;3.40;;;9.40;1.00;;;;;;5056934;28;20640;-88
2023/05/03 00:21:20;;;;;;;10.20;3.50;;;9.30;1.00;;;;;;5066641;28;20681;-87
2023/05/03 00:23:46;;;;;;;7.77;3.37;;;9.30;1.00;;;;;;5073007;28;20716;-87
2023/05/03 00:26:12;;;;;;;10.93;4.63;;;9.30;1.00;;;;;;5074166;28;20179;-87
2023/05/03 00:28:38;;;;;;;7.73;3.60;;;9.20;1.00;;;;;;5073027;28;20172;-87
2023/05/03 00:31:08;;;;;;;10.57;3.97;;;9.30;1.00;;;;;;5073084;28;20183;-87
2023/05/03 00:33:37;;;;;;;7.93;4.00;;;9.30;1.00;;;;;;5073461;28;20212;-86
2023/05/03 00:36:08;;;;;;;6.90;3.80;;;9.30;1.00;;;;;;5077137;28;20204;-87
2023/05/03 00:38:34;;;;;;;8.07;3.67;;;9.30;1.00;;;;;;5086434;28;20624;-87
2023/05/03 00:41:03;;;;;;;6.80;3.40;;;9.20;1.00;;;;;;5074478;28;20230;-87
2023/05/03 00:43:30;;;;;;;7.87;3.63;;;9.10;1.00;;;;;;5072187;28;20176;-86
2023/05/03 00:45:57;;;;;;;7.63;4.23;;;9.10;1.00;;;;;;5072701;28;20666;-87
2023/05/03 00:48:22;;;;;;;6.13;4.33;;;9.10;1.00;;;;;;5071761;28;20203;-87
2023/05/03 00:50:48;;;;;;;8.93;4.20;;;9.20;1.00;;;;;;5072096;28;20212;-87
2023/05/03 00:53:15;;;;;;;6.73;3.60;;;9.20;1.00;;;;;;5071540;28;20261;-87
2023/05/03 00:55:42;;;;;;;7.87;4.10;;;9.10;1.00;;;;;;5074259;28;20172;-86
2023/05/03 00:58:08;;;;;;;9.43;4.00;;;9.10;1.00;;;;;;5076215;28;20535;-87
2023/05/03 01:00:33;;;;;;;9.77;3.73;;;9.00;1.00;;;;;;5076351;28;20252;-86
2023/05/03 01:02:59;;;;;;;8.47;4.10;;;8.90;1.00;;;;;;5076553;28;20184;-87
2023/05/03 01:05:31;;;;;;;8.37;5.03;;;8.90;1.00;;;;;;5076999;28;20220;-86
2023/05/03 01:08:00;;;;;;;6.77;3.70;;;8.80;1.00;;;;;;5075883;28;20176;-86
2023/05/03 01:10:49;;;;;;;6.10;3.80;;;8.80;1.00;;;;;;5075980;28;20198;-86
2023/05/03 01:13:27;;;;;;;6.87;4.47;;;8.70;1.00;;;;;;5076593;28;20216;-87
2023/05/03 01:16:19;;;;;;;7.23;4.03;;;8.70;1.00;;;;;;5076442;28;20190;-86
2023/05/03 01:18:50;;;;;;;5.80;3.87;;;8.60;1.00;;;;;;5075799;28;20654;-87
2023/05/03 01:21:17;;;;;;;7.43;4.10;;;8.50;1.00;;;;;;5075912;28;20172;-87
2023/05/03 01:23:53;;;;;;;8.53;4.03;;;8.60;1.00;;;;;;5075653;28;20172;-86
2023/05/03 01:26:20;;;;;;;10.57;5.10;;;8.50;2.10;;;;;;5081322;28;20151;-86
2023/05/03 01:28:46;;;;;;;7.80;4.07;;;8.50;2.40;;;;;;5096954;28;20210;-85
2023/05/03 01:31:26;;;;;;;9.67;4.27;;;8.60;1.00;;;;;;5089406;28;20179;-84
2023/05/03 01:34:20;;;;;;;8.73;4.17;;;8.70;1.00;;;;;;5096632;28;20212;-83
2023/05/03 01:36:49;;;;;;;9.20;3.90;;;8.60;1.00;;;;;;5093031;28;20172;-85
2023/05/03 01:39:37;;;;;;;7.23;4.23;;;8.50;1.00;;;;;;5088583;28;20624;-85
2023/05/03 01:42:04;;;;;;;11.73;5.20;;;8.40;6.10;;;;;;5090952;28;20176;-84
2023/05/03 01:44:31;;;;;;;11.60;4.80;;;8.40;3.70;;;;;;5092801;28;20180;-87
2023/05/03 01:46:58;;;;;;;8.57;4.63;;;8.40;4.00;;;;;;5078527;28;20194;-87
2023/05/03 01:49:24;;;;;;;8.13;4.33;;;8.40;4.10;;;;;;5090970;28;20196;-85
2023/05/03 01:51:49;;;;;;;9.63;4.60;;;8.50;3.40;;;;;;5092259;28;20195;-86
2023/05/03 01:54:17;;;;;;;11.83;4.73;;;8.50;1.00;;;;;;5084089;28;20207;-86
2023/05/03 01:56:43;;;;;;;8.17;4.17;;;8.50;2.20;;;;;;5077041;28;20365;-88
2023/05/03 01:59:09;;;;;;;8.60;4.57;;;8.40;3.00;;;;;;5062347;28;20177;-84
2023/05/03 02:01:35;;;;;;;8.23;4.10;;;8.40;1.40;;;;;;5092452;28;20180;-88
2023/05/03 02:04:01;;;;;;;5.60;3.97;;;8.50;1.00;;;;;;5077410;28;20514;-87
2023/05/03 02:06:30;;;;;;;8.73;4.43;;;8.50;1.00;;;;;;5079213;28;20273;-86
2023/05/03 02:08:56;;;;;;;8.90;3.80;;;8.40;1.00;;;;;;5075532;28;20183;-86
2023/05/03 02:11:21;;;;;;;9.10;4.10;;;8.40;1.60;;;;;;5074688;28;20259;-86
2023/05/03 02:13:49;;;;;;;8.43;4.27;;;8.40;2.60;;;;;;5075485;28;20557;-85
2023/05/03 02:16:16;;;;;;;9.83;4.63;;;8.40;1.00;;;;;;5088093;28;20168;-86
2023/05/03 02:18:42;;;;;;;7.60;4.20;;;8.40;1.10;;;;;;5079561;28;20708;-87
2023/05/03 02:21:08;;;;;;;8.83;4.40;;;8.30;1.00;;;;;;5076324;28;20200;-86
2023/05/03 02:23:34;;;;;;;9.93;4.57;;;8.30;1.00;;;;;;5090013;28;20194;-86
2023/05/03 02:26:00;;;;;;;5.93;3.73;;;8.20;1.00;;;;;;5085638;28;20168;-84
2023/05/03 02:28:27;;;;;;;7.90;4.30;;;8.20;1.00;;;;;;5092856;28;20251;-85
2023/05/03 02:30:53;;;;;;;5.97;3.83;;;8.20;1.10;;;;;;5090273;28;20181;-87
2023/05/03 02:33:19;;;;;;;6.47;3.63;;;8.10;1.00;;;;;;5075175;28;20212;-86
2023/05/03 02:35:45;;;;;;;6.43;3.67;;;8.00;4.00;;;;;;5075837;28;20692;-85
2023/05/03 02:38:11;;;;;;;7.37;3.67;;;8.00;4.00;;;;;;5091562;28;20187;-84
2023/05/03 02:40:36;;;;;;;6.17;3.80;;;8.00;4.30;;;;;;5098956;28;20231;-84
2023/05/03 02:43:02;;;;;;;7.63;3.57;;;7.90;4.40;;;;;;5083876;28;20696;-86
2023/05/03 02:45:28;;;;;;;5.57;3.77;;;7.90;5.60;;;;;;5073641;28;20183;-85
2023/05/03 02:47:58;;;;;;;5.20;3.90;;;7.90;7.80;;;;;;5075194;28;20616;-86
2023/05/03 02:50:53;;;;;;;6.50;4.23;;;7.90;8.50;;;;;;5078865;28;20172;-85
2023/05/03 02:53:19;;;;;;;8.77;3.93;;;7.90;7.90;;;;;;5082731;28;20208;-86
2023/05/03 02:55:45;;;;;;;8.10;4.37;;;7.90;9.90;;;;;;5075200;28;20175;-86
2023/05/03 02:58:15;;;;;;;8.80;4.30;;;7.80;9.40;;;;;;5074777;28;20176;-88
2023/05/03 03:00:41;;;;;;;5.70;3.60;;;7.80;8.30;;;;;;5074348;28;20203;-86
2023/05/03 03:03:07;;;;;;;7.60;4.60;;;7.80;8.50;;;;;;5073898;28;20629;-85
2023/05/03 03:05:32;;;;;;;6.47;3.97;;;7.80;11.10;;;;;;5073124;28;20184;-85
2023/05/03 03:07:58;;;;;;;8.83;4.43;;;7.80;12.00;;;;;;5073063;28;20172;-86
2023/05/03 03:10:23;;;;;;;8.23;4.47;;;7.80;11.60;;;;;;5088657;28;20228;-85
2023/05/03 03:12:49;;;;;;;8.10;4.90;;;7.70;12.50;;;;;;5084587;28;20361;-86
2023/05/03 03:15:15;;;;;;;11.73;4.77;;;7.70;14.20;;;;;;5073321;28;20615;-87
2023/05/03 03:17:41;;;;;;;8.77;4.37;;;7.70;15.00;;;;;;5074148;28;20172;-86
2023/05/03 03:20:12;;;;;;;8.47;4.53;;;7.70;16.20;;;;;;5072756;28;20253;-86
2023/05/03 03:22:38;;;;;;;8.00;4.53;;;7.70;15.00;;;;;;5073432;28;20532;-86
2023/05/03 03:25:05;;;;;;;6.83;4.27;;;7.70;16.60;;;;;;5075817;28;20515;-85
2023/05/03 03:27:31;;;;;;;7.63;4.43;;;7.70;16.10;;;;;;5082824;28;20156;-86
2023/05/03 03:29:58;;;;;;;9.63;4.63;;;7.70;15.20;;;;;;5091583;28;20177;-85
2023/05/03 03:32:24;;;;;;;9.40;5.20;;;7.60;18.40;;;;;;5087395;28;20203;-86
2023/05/03 03:34:50;;;;;;;7.43;4.53;;;7.60;17.00;;;;;;5090122;28;20208;-86
2023/05/03 03:37:22;;;;;;;6.87;4.73;;;7.60;18.70;;;;;;5075572;28;20628;-85
2023/05/03 03:39:48;;;;;;;7.03;4.70;;;7.60;19.50;;;;;;5074828;28;20167;-87
2023/05/03 03:42:14;;;;;;;8.07;5.30;;;7.50;18.60;;;;;;5072657;28;20180;-88
2023/05/03 03:44:40;;;;;;;9.10;4.90;;;7.50;20.80;;;;;;5073096;28;20258;-87
2023/05/03 03:47:06;;;;;;;10.33;4.97;;;7.60;19.10;;;;;;5078906;28;20202;-87
2023/05/03 03:49:31;;;;;;;7.90;5.23;;;7.60;20.90;;;;;;5091071;28;20179;-86
2023/05/03 03:51:57;;;;;;;11.93;5.50;;;7.50;20.90;;;;;;5090257;28;20193;-87
2023/05/03 03:54:24;;;;;;;10.83;4.90;;;7.50;25.70;;;;;;5076479;28;20695;-87
2023/05/03 03:56:51;;;;;;;10.83;5.10;;;7.50;25.10;;;;;;5073719;28;20218;-87
2023/05/03 03:59:16;;;;;;;8.47;4.57;;;7.40;27.10;;;;;;5082425;28;20184;-84
2023/05/03 04:01:43;;;;;;;7.97;4.67;;;7.30;28.90;;;;;;5096448;28;20156;-86
2023/05/03 04:04:09;;;;;;;14.63;5.30;;;7.40;28.50;;;;;;5096520;28;20224;-88
2023/05/03 04:06:36;;;;;;;9.13;5.00;;;7.30;27.80;;;;;;5086223;28;20179;-87
2023/05/03 04:09:01;;;;;;;9.17;4.70;;;7.20;31.90;;;;;;5084887;28;20179;-86
2023/05/03 04:11:27;;;;;;;13.90;5.00;;;7.20;31.00;;;;;;5077928;28;20262;-85
2023/05/03 04:13:55;;;;;;;8.60;5.40;;;7.20;36.30;;;;;;5092080;28;20310;-84
2023/05/03 04:16:23;;;;;;;10.53;5.07;;;7.20;37.40;;;;;;5076640;28;20176;-88
2023/05/03 04:18:49;;;;;;;13.90;5.50;;;7.20;35.70;;;;;;5072889;28;20179;-88
2023/05/03 04:21:15;;;;;;;10.30;5.83;;;7.10;37.70;;;;;;5073270;28;20254;-88
2023/05/03 04:23:40;;;;;;;11.27;5.77;;;7.00;39.70;;;;;;5073127;28;20183;-85
2023/05/03 04:26:06;;;;;;;9.53;5.80;;;7.00;43.40;;;;;;5073743;28;20175;-87
2023/05/03 04:28:32;;;;;;;11.03;5.90;;;7.00;44.00;;;;;;5087810;28;20160;-85
2023/05/03 04:30:58;;;;;;;9.53;4.83;;;7.00;46.30;;;;;;5089832;28;20263;-87
2023/05/03 04:33:27;;;;;;;9.33;5.80;;;6.90;45.70;;;;;;5077865;28;20222;-87
2023/05/03 04:35:56;;;;;;;8.33;5.57;;;6.90;47.80;;;;;;5077647;28;20732;-87
2023/05/03 04:38:22;;;;;;;11.00;5.10;;;6.90;49.40;;;;;;5088316;28;20179;-87
2023/05/03 04:40:48;;;;;;;9.23;5.33;;;6.90;49.00;;;;;;5101139;28;20164;-85
2023/05/03 04:43:14;;;;;;;10.43;5.73;;;7.00;48.60;;;;;;5099604;28;20188;-87
2023/05/03 04:45:41;;;;;;;8.73;5.70;;;7.10;43.90;;;;;;5096379;28;20168;-85
2023/05/03 04:48:06;;;;;;;13.00;6.03;;;7.10;43.70;;;;;;5096304;28;20164;-86
2023/05/03 04:50:33;;;;;;;10.13;5.00;;;7.10;42.10;;;;;;5083875;28;20164;-86
2023/05/03 04:53:02;;;;;;;15.90;6.47;;;7.00;42.50;;;;;;5096902;28;20207;-87
2023/05/03 04:55:31;;;;;;;14.27;6.10;;;7.00;42.80;;;;;;5080494;28;20172;-86
2023/05/03 04:58:09;;;;;;;12.30;5.93;;;7.10;44.90;;;;;;5076512;28;20183;-86
2023/05/03 05:00:36;;;;;;;9.37;6.00;;;7.00;43.00;;;;;;5076512;28;20168;-87
2023/05/03 05:03:02;;;;;;;11.13;5.90;;;7.00;48.80;;;;;;5076340;28;20164;-88
2023/05/03 05:05:27;;;;;;;17.13;6.70;;;7.10;47.60;;;;;;5077091;28;20172;-86
2023/05/03 05:07:53;;;;;;;12.90;6.10;;;7.20;45.70;;;;;;5081068;28;20184;-86
2023/05/03 05:10:19;;;;;;;13.07;6.17;;;7.30;42.60;;;;;;5077333;28;20171;-88
2023/05/03 05:12:45;;;;;;;11.70;6.13;;;7.40;39.80;;;;;;5078060;28;20632;-87
2023/05/03 05:15:10;;;;;;;12.23;6.20;;;7.40;34.50;;;;;;5077405;28;20180;-87
2023/05/03 05:17:36;;;;;;;12.00;6.30;;;7.30;38.80;;;;;;5078232;28;20179;-87
2023/05/03 05:20:04;;;;;;;13.50;6.07;;;7.30;39.80;;;;;;5077195;28;20172;-86
2023/05/03 05:22:31;;;;;;;9.97;6.10;;;7.40;37.20;;;;;;5076944;28;20188;-88
2023/05/03 05:24:57;;;;;;;13.50;6.03;;;7.50;32.80;;;;;;5077413;28;20271;-87
2023/05/03 05:27:22;;;;;;;11.97;5.90;;;7.50;35.30;;;;;;5076945;28;20173;-87
2023/05/03 05:29:48;;;;;;;9.70;6.13;;;7.40;35.20;;;;;;5077192;28;20202;-86
2023/05/03 05:32:14;;;;;;;9.80;6.17;;;7.40;35.50;;;;;;5060978;28;20181;-85
2023/05/03 05:34:41;;;;;;;13.87;7.03;;;7.40;35.40;;;;;;5079422;28;20238;-86
2023/05/03 05:37:10;;;;;;;9.33;6.00;;;7.50;32.80;;;;;;5100415;28;20190;-86
2023/05/03 05:39:39;;;;;;;10.37;6.00;;;7.60;29.50;;;;;;5091065;28;20323;-87
2023/05/03 05:42:04;;;;;;;10.67;6.30;;;7.50;31.80;;;;;;5081645;28;20176;-88
2023/05/03 05:44:31;;;;;;;11.20;6.87;;;7.50;34.70;;;;;;5093265;28;20211;-87
2023/05/03 05:46:57;;;;;;;13.23;7.10;;;7.60;35.20;;;;;;5094392;28;20181;-87
2023/05/03 05:49:26;;;;;;;11.00;6.90;;;7.90;29.80;;;;;;5085881;28;20172;-87
2023/05/03 05:51:53;;;;;;;12.70;6.90;;;8.00;25.50;;;;;;5078153;28;20232;-87
2023/05/03 05:54:18;;;;;;;11.03;6.67;;;8.10;16.30;;;;;;5076651;28;20210;-90
2023/05/03 05:56:45;;;;;;;11.70;6.43;;;8.20;12.20;;;;;;5077508;28;20165;-89
2023/05/03 05:59:11;;;;;;;11.10;6.60;;;8.30;11.70;;;;;;5075526;28;20183;-87
2023/05/03 06:01:40;;;;;;;14.80;7.83;;;8.30;12.40;;;;;;5081252;28;20173;-88
2023/05/03 06:04:07;;;;;;;9.37;6.60;;;8.40;10.20;;;;;;5094983;28;20172;-94
2023/05/03 06:06:33;;;;;;;10.50;6.80;;;8.40;2.90;;;;;;5075455;28;20172;-88
2023/05/03 06:08:59;;;;;;;12.07;7.00;;;8.40;1.00;;;;;;5092886;28;20516;-86
2023/05/03 06:11:26;;;;;;;10.97;6.47;;;8.40;1.00;;;;;;5085170;28;20193;-92
2023/05/03 06:13:56;;;;;;;12.97;7.13;;;8.40;1.00;;;;;;5069140;28;20204;-89
2023/05/03 06:16:25;;;;;;;12.53;7.23;;;8.40;1.00;;;;;;5074544;28;20169;-89
2023/05/03 06:18:53;;;;;;;10.30;6.67;;;8.40;1.00;;;;;;5070751;28;20213;-90
2023/05/03 06:21:21;;;;;;;11.23;7.70;;;8.40;1.00;;;;;;5067002;28;20169;-87
2023/05/03 06:23:47;;;;;;;12.27;7.00;;;8.30;1.00;;;;;;5079853;28;20238;-88
2023/05/03 06:26:12;;;;;;;10.77;6.63;;;8.40;1.00;;;;;;5092244;28;20184;-89
2023/05/03 06:28:38;;;;;;;12.40;6.73;;;8.50;1.00;;;;;;5085061;28;20520;-88
2023/05/03 06:31:05;;;;;;;10.40;7.07;;;8.60;1.00;;;;;;5097267;28;20144;-88
2023/05/03 06:33:30;;;;;;;13.67;6.97;;;8.70;1.00;;;;;;5098741;28;20258;-88
2023/05/03 06:35:57;;;;;;;10.67;6.97;;;8.70;1.00;;;;;;5085023;28;20176;-89
2023/05/03 06:38:23;;;;;;;11.40;7.47;;;8.90;1.00;;;;;;5078282;28;20188;-90
2023/05/03 06:40:52;;;;;;;17.33;7.50;;;8.90;1.00;;;;;;5090173;28;20671;-82
2023/05/03 06:43:19;;;;;;;12.77;7.60;;;9.00;1.00;;;;;;5087334;28;20275;-85
2023/05/03 06:45:47;;;;;;;11.20;7.00;;;9.00;1.00;;;;;;5062159;28;20267;-88
2023/05/03 06:48:15;;;;;;;9.67;7.43;;;8.90;1.00;;;;;;5072688;28;20183;-88
2023/05/03 06:50:42;;;;;;;14.77;7.40;;;8.90;1.00;;;;;;5075563;28;20362;-89
2023/05/03 06:53:07;;;;;;;14.97;8.40;;;9.00;1.00;;;;;;5069877;28;20201;-88
2023/05/03 06:55:33;;;;;;;12.40;7.60;;;9.00;1.00;;;;;;5068591;28;20671;-89
2023/05/03 06:57:59;;;;;;;11.83;7.40;;;9.30;1.00;;;;;;5073092;28;20236;-88
2023/05/03 07:00:25;;;;;;;10.83;7.93;;;9.30;1.00;;;;;;5057187;28;20189;-86
2023/05/03 07:02:50;;;;;;;14.67;7.67;;;9.50;1.00;;;;;;5055005;28;20180;-88
2023/05/03 07:05:16;;;;;;;11.20;7.33;;;9.50;1.00;;;;;;5054958;28;20173;-88
2023/05/03 07:07:42;;;;;;;14.77;8.33;;;9.70;1.00;;;;;;5067326;28;20176;-88
2023/05/03 07:10:08;;;;;;;14.00;7.97;;;9.80;1.00;;;;;;5077758;28;20173;-88
2023/05/03 07:12:34;;;;;;;11.37;7.43;;;9.80;1.00;;;;;;5073792;28;20176;-87
2023/05/03 07:14:59;;;;;;;10.67;7.93;;;9.90;1.00;;;;;;5062526;28;20204;-88
2023/05/03 07:17:25;;;;;;;14.77;8.37;;;9.90;1.00;;;;;;5086699;28;20173;-87
2023/05/03 07:19:51;;;;;;;12.77;8.17;;;10.00;1.00;;;;;;5068136;28;20230;-88
2023/05/03 07:22:20;;;;;;;12.03;8.13;;;10.10;1.00;;;;;;5071793;28;20183;-87
2023/05/03 07:24:45;;;;;;;13.47;7.93;;;10.10;1.00;;;;;;5078339;28;20172;-88
2023/05/03 07:27:12;;;;;;;14.13;8.63;;;10.30;1.00;;;;;;5067686;28;20699;-88
2023/05/03 07:29:39;;;;;;;12.47;8.67;;;10.40;1.00;;;;;;5066393;28;20183;-88
2023/05/03 07:32:07;;;;;;;11.97;8.27;;;10.50;1.00;;;;;;5072839;28;20222;-87
2023/05/03 07:34:33;;;;;;;12.27;8.30;;;10.50;1.00;;;;;;5075986;28;20216;-88
2023/05/03 07:36:59;;;;;;;13.50;8.50;;;10.60;1.00;;;;;;5073190;28;20653;-89
2023/05/03 07:39:26;;;;;;;11.53;8.73;;;10.80;1.00;;;;;;5089966;28;20195;-89
2023/05/03 07:41:52;;;;;;;13.63;8.77;;;10.80;1.00;;;;;;5094731;28;20168;-87
2023/05/03 07:44:17;;;;;;;14.07;9.30;;;10.80;1.00;;;;;;5091346;28;20156;-87
2023/05/03 07:46:55;;;;;;;13.77;9.20;;;10.90;1.00;;;;;;5068139;28;20197;-89
2023/05/03 07:49:23;;;;;;;14.60;8.70;;;11.20;1.00;;;;;;5072736;28;20647;-87
2023/05/03 07:51:50;;;;;;;14.00;9.17;;;11.30;1.00;;;;;;5056632;28;20184;-87
2023/05/03 07:54:17;;;;;;;11.63;9.03;;;11.30;1.00;;;;;;5069453;28;20223;-86
2023/05/03 07:56:43;;;;;;;16.00;9.87;;;11.30;1.00;;;;;;5070994;28;20243;-83
2023/05/03 07:59:08;;;;;;;14.67;8.83;;;11.40;1.00;;;;;;5062234;28;20209;-85
2023/05/03 08:01:37;;;;;;;14.73;8.83;;;11.40;1.00;;;;;;5060765;28;20628;-83
2023/05/03 08:04:03;;;;;;;14.63;9.93;;;11.30;1.00;;;;;;5071091;28;20213;-85
2023/05/03 08:06:30;;;;;;;16.37;10.03;;;11.30;1.00;;;;;;5067200;28;20177;-83
2023/05/03 08:08:55;;;;;;;13.87;10.50;;;11.40;1.00;;;;;;5052990;28;20181;-83
2023/05/03 08:11:21;;;;;;;11.57;8.73;;;11.40;1.00;;;;;;5061858;28;20186;-76
2023/05/03 08:13:47;;;;;;;18.20;9.07;;;11.80;1.00;;;;;;5053308;28;20212;-80
2023/05/03 08:16:15;;;;;;;13.83;9.37;;;12.20;1.00;;;;;;5057119;28;20204;-83
2023/05/03 08:18:40;;;;;;;14.53;8.77;;;12.50;1.00;;;;;;5063469;28;20287;-77
2023/05/03 08:21:13;;;;;;;15.73;8.70;;;12.50;1.00;;;;;;5062116;28;20199;-83
2023/05/03 08:23:42;;;;;;;15.07;10.57;;;12.60;1.00;;;;;;5072128;28;20184;-82
2023/05/03 08:26:09;;;;;;;12.93;9.30;;;12.30;1.00;;;;;;5070742;28;20207;-86
2023/05/03 08:28:35;;;;;;;13.40;9.33;;;12.10;1.00;;;;;;5075704;28;20179;-86
2023/05/03 08:31:04;;;;;;;13.23;9.50;;;12.20;1.00;;;;;;5070462;28;20176;-86
2023/05/03 08:33:30;;;;;;;16.97;10.40;;;12.20;1.00;;;;;;5075402;28;20700;-84
2023/05/03 08:35:55;;;;;;;16.43;9.73;;;12.20;1.00;;;;;;5062436;28;20177;-85
2023/05/03 08:38:21;;;;;;;14.50;10.50;;;12.40;1.00;;;;;;5077582;28;20192;-88
2023/05/03 08:40:53;;;;;;;14.10;10.47;;;12.30;1.00;;;;;;5052859;28;20223;-82
2023/05/03 08:43:20;;;;;;;17.93;10.80;;;12.20;1.00;;;;;;5052236;28;20269;-88
2023/05/03 08:45:46;;;;;;;17.60;10.67;;;12.30;1.00;;;;;;5053983;28;20275;-85
2023/05/03 08:48:13;;;;;;;15.00;11.40;;;12.50;1.00;;;;;;5069677;28;20621;-86
2023/05/03 08:50:41;;;;;;;12.73;9.53;;;12.70;1.00;;;;;;5067205;28;20289;-84
2023/05/03 08:53:10;;;;;;;17.00;10.70;;;12.60;1.00;;;;;;5065771;28;20216;-85
2023/05/03 08:55:37;;;;;;;13.87;10.37;;;12.60;1.00;;;;;;5057368;28;20180;-85
2023/05/03 08:58:11;;;;;;;13.33;9.87;;;12.80;1.00;;;;;;5057129;28;20172;-83
2023/05/03 09:00:37;;;;;;;13.73;10.20;;;12.80;1.00;;;;;;5075090;28;20241;-85
2023/05/03 09:03:03;;;;;;;14.73;9.53;;;13.10;1.00;;;;;;5090703;28;20650;-84
2023/05/03 09:05:37;;;;;;;13.33;10.60;;;13.20;99.90;;;;;;5083855;28;20197;-89
2023/05/03 09:08:10;;;;;;;16.90;10.70;;;13.20;1.00;;;;;;5074474;28;20178;-89
2023/05/03 09:10:40;;;;;;;12.10;9.50;;;13.00;1.00;;;;;;5067552;28;20186;-89
2023/05/03 09:13:06;;;;;;;15.90;9.97;;;13.00;99.90;;;;;;5068261;28;20228;-94
2023/05/03 09:15:33;;;;;;;15.80;10.27;;;13.10;1.00;;;;;;5052728;28;20231;-84
2023/05/03 09:18:18;;;;;;;17.37;10.63;;;13.40;1.00;;;;;;5056556;28;20175;-84
2023/05/03 09:20:50;;;;;;;15.50;9.90;;;13.50;99.90;;;;;;5056221;28;20171;-82
2023/05/03 09:23:29;;;;;;;14.43;9.70;;;13.70;99.90;;;;;;5058077;28;20172;-82
2023/05/03 09:25:55;;;;;;;14.63;10.53;;;13.60;99.90;;;;;;5058939;28;20165;-85
2023/05/03 09:28:21;;;;;;;13.63;9.47;;;13.60;99.90;;;;;;5055343;28;20222;-83
2023/05/03 09:30:48;;;;;;;13.33;9.50;;;13.50;99.90;;;;;;5057765;28;20169;-83
2023/05/03 09:33:19;;;;;;;13.43;9.47;;;13.40;99.90;;;;;;5062005;28;20204;-80
2023/05/03 09:36:04;;;;;;;16.33;9.20;;;13.40;99.90;;;;;;5065853;28;20181;-81
2023/05/03 09:38:33;;;;;;;15.43;9.47;;;13.30;99.90;;;;;;5072404;28;20171;-81
2023/05/03 09:41:02;;;;;;;14.27;9.23;;;13.30;99.90;;;;;;5070425;28;20179;-81
2023/05/03 09:43:34;;;;;;;13.73;8.90;;;13.50;99.90;;;;;;5068985;28;20206;-79
2023/05/03 09:46:11;;;;;;;15.97;11.10;;;13.30;99.90;;;;;;5069484;28;20188;-83
2023/05/03 09:48:38;;;;;;;16.50;8.57;;;13.60;99.90;;;;;;5068117;28;20279;-86
2023/05/03 09:51:05;;;;;;;12.43;9.30;;;13.70;99.90;;;;;;5042058;28;20176;-82
2023/05/03 09:53:35;;;;;;;16.70;9.47;;;13.70;99.90;;;;;;5056659;28;20279;-85
2023/05/03 09:56:11;;;;;;;13.93;9.70;;;13.60;99.90;;;;;;5072566;28;20257;-83
2023/05/03 09:58:40;;;;;;;12.37;9.63;;;13.80;99.90;;;;;;5057087;28;20166;-84
2023/05/03 10:01:08;;;;;;;12.77;8.93;;;13.80;99.90;;;;;;5055955;28;20213;-87
2023/05/03 10:03:43;;;;;;;12.73;9.00;;;13.70;99.90;;;;;;5058060;28;20169;-84
2023/05/03 10:06:35;;;;;;;11.37;8.80;;;13.80;99.90;;;;;;5056457;28;20166;-87
2023/05/03 10:09:25;;;;;;;14.30;9.23;;;13.80;99.90;;;;;;5061721;28;20204;-86
2023/05/03 10:11:53;;;;;;;10.70;8.73;;;13.90;99.90;;;;;;5066349;28;20177;-82
2023/05/03 10:14:22;;;;;;;19.60;9.43;;;14.00;99.90;;;;;;5055888;28;20213;-83
2023/05/03 10:16:52;;;;;;;13.13;9.53;;;14.00;99.90;;;;;;5059083;28;20177;-85
2023/05/03 10:19:28;;;;;;;15.50;9.37;;;14.20;99.90;;;;;;5063346;28;20177;-82
2023/05/03 10:22:06;;;;;;;23.90;11.10;;;14.50;99.90;;;;;;5071396;28;20285;-79
2023/05/03 10:24:34;;;;;;;14.47;9.10;;;14.90;99.90;;;;;;5071601;28;20163;-82
2023/05/03 10:27:00;;;;;;;12.40;8.90;;;15.10;99.90;;;;;;5073779;28;20612;-82
2023/05/03 10:29:44;;;;;;;13.40;10.20;;;15.00;1.00;;;;;;5076360;28;20199;-86
2023/05/03 10:32:31;;;;;;;13.33;9.73;;;14.80;1.00;;;;;;5062978;28;20172;-82
2023/05/03 10:35:27;;;;;;;13.40;9.67;;;14.60;54.60;;;;;;5058953;28;20239;-85
2023/05/03 10:38:15;;;;;;;14.20;10.00;;;14.70;70.00;;;;;;5057471;28;20200;-87
2023/05/03 10:40:42;;;;;;;14.40;10.80;;;14.70;99.90;;;;;;5055604;28;20182;-84
2023/05/03 10:43:31;;;;;;;16.27;10.77;;;14.60;97.30;;;;;;5057288;28;20172;-84
2023/05/03 10:46:02;;;;;;;13.63;9.47;;;14.50;99.90;;;;;;5059069;28;20251;-81
2023/05/03 10:48:29;;;;;;;13.90;9.77;;;14.50;99.90;;;;;;5080098;28;20181;-85
2023/05/03 10:50:56;;;;;;;12.73;9.67;;;14.40;99.90;;;;;;5056932;28;20181;-86
2023/05/03 10:53:38;;;;;;;15.10;10.40;;;14.40;99.90;;;;;;5059263;28;20269;-83
2023/05/03 10:56:07;;;;;;;13.10;9.57;;;14.50;99.90;;;;;;5059778;28;20564;-84
2023/05/03 10:58:48;;;;;;;12.93;9.20;;;14.60;91.20;;;;;;5058356;28;20619;-83
2023/05/03 11:01:16;;;;;;;13.00;9.17;;;14.60;56.90;;;;;;5058610;28;20182;-84
2023/05/03 11:04:02;;;;;;;12.67;10.17;;;14.60;1.00;;;;;;5072993;28;20181;-84
2023/05/03 11:06:33;;;;;;;14.07;11.10;;;14.60;1.00;;;;;;5063724;28;20161;-83
2023/05/03 11:08:59;;;;;;;17.47;10.80;;;14.60;1.00;;;;;;5078555;28;20191;-81
2023/05/03 11:11:25;;;;;;;14.53;10.83;;;14.70;1.00;;;;;;5066067;28;20549;-81
2023/05/03 11:13:51;;;;;;;13.40;11.10;;;14.70;15.20;;;;;;5085332;28;20218;-86
2023/05/03 11:16:20;;;;;;;19.57;10.70;;;14.80;1.00;;;;;;5067532;28;20204;-82
2023/05/03 11:18:47;;;;;;;14.17;10.50;;;15.00;1.00;;;;;;5054994;28;20200;-83
2023/05/03 11:21:14;;;;;;;18.27;11.27;;;15.30;99.90;;;;;;5054201;28;20204;-86
2023/05/03 11:23:41;;;;;;;14.40;11.13;;;15.40;99.90;;;;;;5054882;28;20323;-84
2023/05/03 11:26:08;;;;;;;15.73;10.87;;;15.40;99.90;;;;;;5062277;28;20259;-82
2023/05/03 11:28:44;;;;;;;17.20;10.83;;;15.60;1.00;;;;;;5062475;28;20208;-85
2023/05/03 11:31:12;;;;;;;14.87;10.40;;;15.50;1.00;;;;;;5061910;28;20235;-84
2023/05/03 11:33:39;;;;;;;16.07;10.37;;;15.20;99.90;;;;;;5065648;28;20205;-84
2023/05/03 11:36:08;;;;;;;16.87;10.53;;;15.20;99.90;;;;;;5063551;28;20181;-82
2023/05/03 11:38:38;;;;;;;14.57;10.43;;;15.10;1.00;;;;;;5086921;28;20172;-85
2023/05/03 11:41:15;;;;;;;15.43;10.70;;;15.30;1.00;;;;;;5088064;28;20172;-83
2023/05/03 11:43:49;;;;;;;17.63;11.33;;;15.50;99.90;;;;;;5090031;28;20156;-86
2023/05/03 11:46:21;;;;;;;19.63;11.37;;;15.50;99.90;;;;;;5078402;28;20192;-85
2023/05/03 11:48:49;;;;;;;14.60;10.23;;;15.40;99.90;;;;;;5080593;28;20190;-84
2023/05/03 11:51:21;;;;;;;15.30;10.70;;;15.30;99.90;;;;;;5078280;28;20192;-85
2023/05/03 11:53:48;;;;;;;14.47;10.43;;;15.40;99.90;;;;;;5080678;28;20219;-81
2023/05/03 11:56:16;;;;;;;14.83;10.23;;;15.50;99.90;;;;;;5090255;28;20173;-78
2023/05/03 11:58:58;;;;;;;18.33;10.67;;;15.30;99.90;;;;;;5086880;28;20259;-82
2023/05/03 12:01:44;;;;;;;14.47;9.53;;;15.20;99.90;;;;;;5085103;28;20168;-79
2023/05/03 12:04:11;;;;;;;16.90;10.70;;;15.10;99.90;;;;;;5087025;28;20641;-89
2023/05/03 12:06:51;;;;;;;13.63;10.37;;;15.20;1.00;;;;;;5077714;28;20168;-87
2023/05/03 12:09:34;;;;;;;13.17;10.20;;;15.40;99.90;;;;;;5079306;28;20176;-86
2023/05/03 12:12:03;;;;;;;14.00;9.90;;;15.60;99.90;;;;;;5081736;28;20175;-83
2023/05/03 12:15:12;;;;;;;14.80;9.63;;;15.80;99.90;;;;;;5076670;28;20216;-84
2023/05/03 12:17:39;;;;;;;13.70;10.80;;;15.80;1.00;;;;;;5077706;28;20172;-85
2023/05/03 12:20:21;;;;;;;14.07;10.37;;;15.80;99.90;;;;;;5075760;28;20168;-84
2023/05/03 12:23:02;;;;;;;14.80;10.10;;;15.90;1.00;;;;;;5078048;28;20195;-87
2023/05/03 12:25:30;;;;;;;15.03;9.03;;;15.90;99.90;;;;;;5075721;28;20346;-85
2023/05/03 12:27:59;;;;;;;11.30;8.67;;;16.00;1.00;;;;;;5079393;28;20176;-88
2023/05/03 12:30:25;;;;;;;12.80;9.40;;;15.90;99.90;;;;;;5079425;28;20176;-87
2023/05/03 12:32:52;;;;;;;12.97;10.13;;;15.80;1.00;;;;;;5077691;28;20189;-88
2023/05/03 12:35:19;;;;;;;11.90;8.60;;;15.80;99.90;;;;;;5075183;28;20253;-83
2023/05/03 12:37:46;;;;;;;11.80;8.67;;;16.00;71.70;;;;;;5075363;28;20187;-83
2023/05/03 12:40:12;;;;;;;12.03;8.93;;;16.10;70.50;;;;;;5075364;28;20259;-87
2023/05/03 12:42:40;;;;;;;12.03;8.37;;;16.10;99.90;;;;;;5074685;28;20172;-86
2023/05/03 12:45:07;;;;;;;13.60;10.10;;;16.10;1.00;;;;;;5074116;28;20179;-85
2023/05/03 12:47:33;;;;;;;13.60;10.13;;;16.10;20.40;;;;;;5077133;28;20612;-87
2023/05/03 12:50:01;;;;;;;15.07;9.33;;;16.00;1.00;;;;;;5075616;28;20597;-83
2023/05/03 12:52:27;;;;;;;11.30;8.77;;;16.00;1.00;;;;;;5090725;28;20165;-82
2023/05/03 12:54:54;;;;;;;16.63;8.67;;;16.10;99.90;;;;;;5088765;28;20642;-84
2023/05/03 12:57:21;;;;;;;12.67;8.20;;;16.20;1.00;;;;;;5063207;28;20202;-87
2023/05/03 12:59:51;;;;;;;11.47;8.43;;;16.30;1.00;;;;;;5082249;28;20654;-82